sensor_id;sensor_type;location;lat;lon;timestamp;pressure;altitude;pressure_sealevel;temperature;humidity
10145;BME280;5113;41.822;23.564;2023-02-14T00:01:23;-10834.81;;;-3.61;100.00
10145;BME280;5113;41.822;23.564;2023-02-14T00:04:30;-10829.94;;;-3.79;100.00
10145;BME280;5113;41.822;23.564;2023-02-14T00:07:36;-10824.06;;;-4.01;100.00
10145;BME280;5113;41.822;23.564;2023-02-14T00:10:43;-10824.88;;;-3.97;100.00
10145;BME280;5113;41.822;23.564;2023-02-14T00:13:49;-10833.41;;;-3.67;100.00
10145;BME280;5113;41.822;23.564;2023-02-14T00:17:10;-10833.84;;;-3.65;100.00
10145;BME280;5113;41.822;23.564;2023-02-14T00:20:17;-10845.59;;;-3.22;100.00
10145;BME280;5113;41.822;23.564;2023-02-14T00:23:23;-10845.03;;;-3.24;100.00
10145;BME280;5113;41.822;23.564;2023-02-14T00:26:29;-10820.69;;;-4.13;100.00
10145;BME280;5113;41.822;23.564;2023-02-14T00:29:36;-10827.28;;;-3.89;100.00
10145;BME280;5113;41.822;23.564;2023-02-14T00:32:43;-10838.03;;;-3.50;100.00
10145;BME280;5113;41.822;23.564;2023-02-14T00:35:49;-10847.81;;;-3.14;100.00
10145;BME280;5113;41.822;23.564;2023-02-14T00:38:56;-10841.09;;;-3.39;100.00
10145;BME280;5113;41.822;23.564;2023-02-14T00:42:02;-10847.25;;;-3.16;100.00
10145;BME280;5113;41.822;23.564;2023-02-14T00:45:09;-10842.50;;;-3.34;100.00
10145;BME280;5113;41.822;23.564;2023-02-14T00:48:17;-10831.31;;;-3.74;100.00
10145;BME280;5113;41.822;23.564;2023-02-14T00:51:23;-10834.13;;;-3.64;100.00
10145;BME280;5113;41.822;23.564;2023-02-14T00:54:30;-10836.34;;;-3.56;100.00
10145;BME280;5113;41.822;23.564;2023-02-14T00:57:36;-10819.59;;;-4.17;100.00
10145;BME280;5113;41.822;23.564;2023-02-14T01:00:43;-10828.81;;;-3.83;100.00
10145;BME280;5113;41.822;23.564;2023-02-14T01:03:50;-10831.59;;;-3.73;100.00
10145;BME280;5113;41.822;23.564;2023-02-14T01:06:57;-10816.38;;;-4.28;100.00
10145;BME280;5113;41.822;23.564;2023-02-14T01:10:04;-10808.69;;;-4.56;100.00
10145;BME280;5113;41.822;23.564;2023-02-14T01:13:11;-10823.63;;;-4.02;100.00
10145;BME280;5113;41.822;23.564;2023-02-14T01:16:19;-10834.81;;;-3.61;100.00
10145;BME280;5113;41.822;23.564;2023-02-14T01:19:27;-10822.38;;;-4.07;100.00
10145;BME280;5113;41.822;23.564;2023-02-14T01:22:34;-10818.31;;;-4.21;100.00
10145;BME280;5113;41.822;23.564;2023-02-14T01:25:41;-10817.47;;;-4.24;100.00
10145;BME280;5113;41.822;23.564;2023-02-14T01:28:48;-10826.28;;;-3.92;100.00
10145;BME280;5113;41.822;23.564;2023-02-14T01:31:55;-10832.44;;;-3.70;100.00
10145;BME280;5113;41.822;23.564;2023-02-14T01:35:02;-10834.97;;;-3.61;100.00
10145;BME280;5113;41.822;23.564;2023-02-14T01:38:09;-10832.16;;;-3.71;100.00
10145;BME280;5113;41.822;23.564;2023-02-14T01:41:16;-10825.72;;;-3.94;100.00
10145;BME280;5113;41.822;23.564;2023-02-14T01:44:54;-10831.75;;;-3.73;100.00
10145;BME280;5113;41.822;23.564;2023-02-14T01:48:01;-10833.84;;;-3.65;100.00
10145;BME280;5113;41.822;23.564;2023-02-14T01:51:08;-10828.53;;;-3.84;100.00
10145;BME280;5113;41.822;23.564;2023-02-14T01:54:15;-10825.03;;;-3.97;100.00
10145;BME280;5113;41.822;23.564;2023-02-14T01:57:23;-10831.47;;;-3.74;100.00
10145;BME280;5113;41.822;23.564;2023-02-14T02:00:31;-10826.72;;;-3.91;100.00
10145;BME280;5113;41.822;23.564;2023-02-14T02:03:58;-10823.63;;;-4.02;100.00
10145;BME280;5113;41.822;23.564;2023-02-14T02:07:09;-10814.28;;;-4.36;100.00
10145;BME280;5113;41.822;23.564;2023-02-14T02:10:17;-10815.66;;;-4.31;100.00
10145;BME280;5113;41.822;23.564;2023-02-14T02:13:24;-10809.78;;;-4.52;100.00
10145;BME280;5113;41.822;23.564;2023-02-14T02:20:39;-10813.16;;;-4.40;100.00
10145;BME280;5113;41.822;23.564;2023-02-14T02:24:06;-10799.72;;;-4.89;100.00
10145;BME280;5113;41.822;23.564;2023-02-14T02:27:26;-10798.63;;;-4.93;100.00
10145;BME280;5113;41.822;23.564;2023-02-14T02:34:36;-10791.50;;;-5.19;100.00
10145;BME280;5113;41.822;23.564;2023-02-14T02:37:59;-10802.38;;;-4.79;100.00
10145;BME280;5113;41.822;23.564;2023-02-14T02:41:14;-10816.22;;;-4.29;100.00
10145;BME280;5113;41.822;23.564;2023-02-14T02:44:28;-10822.66;;;-4.06;100.00
10145;BME280;5113;41.822;23.564;2023-02-14T02:47:38;-10823.50;;;-4.03;100.00
10145;BME280;5113;41.822;23.564;2023-02-14T02:50:50;-10813.84;;;-4.38;100.00
10145;BME280;5113;41.822;23.564;2023-02-14T02:54:20;-10826.16;;;-3.93;100.00
10145;BME280;5113;41.822;23.564;2023-02-14T02:57:36;-10808.13;;;-4.58;100.00
10145;BME280;5113;41.822;23.564;2023-02-14T03:00:46;-10793.44;;;-5.12;100.00
10145;BME280;5113;41.822;23.564;2023-02-14T03:03:58;-10803.09;;;-4.77;100.00
10145;BME280;5113;41.822;23.564;2023-02-14T03:07:30;-10816.22;;;-4.29;100.00
10145;BME280;5113;41.822;23.564;2023-02-14T03:10:42;-10818.75;;;-4.20;100.00
10145;BME280;5113;41.822;23.564;2023-02-14T03:13:56;-10818.59;;;-4.20;100.00
10145;BME280;5113;41.822;23.564;2023-02-14T03:17:15;-10823.78;;;-4.02;100.00
10145;BME280;5113;41.822;23.564;2023-02-14T03:20:34;-10827.56;;;-3.88;100.00
10145;BME280;5113;41.822;23.564;2023-02-14T03:23:50;-10828.25;;;-3.85;100.00
10145;BME280;5113;41.822;23.564;2023-02-14T03:27:05;-10831.88;;;-3.72;100.00
10145;BME280;5113;41.822;23.564;2023-02-14T03:30:17;-10833.84;;;-3.65;100.00
10145;BME280;5113;41.822;23.564;2023-02-14T03:33:32;-10823.78;;;-4.02;100.00
10145;BME280;5113;41.822;23.564;2023-02-14T03:36:46;-10821.53;;;-4.10;100.00
10145;BME280;5113;41.822;23.564;2023-02-14T03:40:00;-10811.34;;;-4.47;100.00
10145;BME280;5113;41.822;23.564;2023-02-14T03:43:11;-10810.06;;;-4.51;100.00
10145;BME280;5113;41.822;23.564;2023-02-14T03:46:21;-10824.06;;;-4.01;100.00
10145;BME280;5113;41.822;23.564;2023-02-14T03:49:32;-10806.72;;;-4.63;100.00
10145;BME280;5113;41.822;23.564;2023-02-14T03:52:41;-10799.59;;;-4.89;100.00
10145;BME280;5113;41.822;23.564;2023-02-14T03:55:52;-10794.97;;;-5.06;100.00
10145;BME280;5113;41.822;23.564;2023-02-14T03:59:06;-10801.28;;;-4.83;100.00
10145;BME280;5113;41.822;23.564;2023-02-14T04:02:17;-10821.41;;;-4.10;100.00
10145;BME280;5113;41.822;23.564;2023-02-14T04:05:25;-10827.00;;;-3.90;100.00
10145;BME280;5113;41.822;23.564;2023-02-14T04:08:32;-10825.44;;;-3.95;100.00
10145;BME280;5113;41.822;23.564;2023-02-14T04:11:39;-10823.50;;;-4.03;100.00
10145;BME280;5113;41.822;23.564;2023-02-14T04:14:47;-10820.28;;;-4.14;100.00
10145;BME280;5113;41.822;23.564;2023-02-14T04:17:53;-10823.22;;;-4.04;100.00
10145;BME280;5113;41.822;23.564;2023-02-14T04:21:17;-10823.91;;;-4.01;100.00
10145;BME280;5113;41.822;23.564;2023-02-14T04:24:23;-10824.06;;;-4.01;100.00
10145;BME280;5113;41.822;23.564;2023-02-14T04:27:30;-10823.63;;;-4.02;100.00
10145;BME280;5113;41.822;23.564;2023-02-14T04:30:37;-10828.66;;;-3.84;100.00
10145;BME280;5113;41.822;23.564;2023-02-14T04:33:44;-10828.66;;;-3.84;100.00
10145;BME280;5113;41.822;23.564;2023-02-14T04:36:51;-10827.69;;;-3.87;100.00
10145;BME280;5113;41.822;23.564;2023-02-14T04:39:58;-10820.56;;;-4.13;100.00
10145;BME280;5113;41.822;23.564;2023-02-14T04:43:04;-10825.31;;;-3.96;100.00
10145;BME280;5113;41.822;23.564;2023-02-14T04:46:13;-10812.31;;;-4.43;100.00
10145;BME280;5113;41.822;23.564;2023-02-14T04:49:20;-10820.69;;;-4.13;100.00
10145;BME280;5113;41.822;23.564;2023-02-14T04:52:26;-10796.94;;;-4.99;100.00
10145;BME280;5113;41.822;23.564;2023-02-14T04:55:32;-10794.00;;;-5.10;100.00
10145;BME280;5113;41.822;23.564;2023-02-14T04:58:38;-10793.88;;;-5.10;100.00
10145;BME280;5113;41.822;23.564;2023-02-14T05:01:46;-10806.88;;;-4.63;100.00
10145;BME280;5113;41.822;23.564;2023-02-14T05:04:52;-10797.63;;;-4.96;100.00
10145;BME280;5113;41.822;23.564;2023-02-14T05:07:58;-10814.00;;;-4.37;100.00
10145;BME280;5113;41.822;23.564;2023-02-14T05:11:04;-10816.94;;;-4.26;100.00
10145;BME280;5113;41.822;23.564;2023-02-14T05:14:11;-10823.22;;;-4.04;100.00
10145;BME280;5113;41.822;23.564;2023-02-14T05:17:18;-10813.16;;;-4.40;100.00
10145;BME280;5113;41.822;23.564;2023-02-14T05:20:25;-10803.94;;;-4.74;100.00
10145;BME280;5113;41.822;23.564;2023-02-14T05:23:31;-10787.59;;;-5.33;100.00
10145;BME280;5113;41.822;23.564;2023-02-14T05:26:37;-10784.66;;;-5.44;100.00
10145;BME280;5113;41.822;23.564;2023-02-14T05:29:44;-10765.94;;;-6.12;100.00
10145;BME280;5113;41.822;23.564;2023-02-14T05:32:52;-10786.19;;;-5.38;100.00
10145;BME280;5113;41.822;23.564;2023-02-14T05:35:59;-10791.34;;;-5.19;100.00
10145;BME280;5113;41.822;23.564;2023-02-14T05:39:06;-10809.78;;;-4.52;100.00
10145;BME280;5113;41.822;23.564;2023-02-14T05:42:12;-10807.00;;;-4.62;100.00
10145;BME280;5113;41.822;23.564;2023-02-14T05:45:19;-10810.50;;;-4.50;100.00
10145;BME280;5113;41.822;23.564;2023-02-14T05:48:26;-10815.09;;;-4.33;100.00
10145;BME280;5113;41.822;23.564;2023-02-14T05:51:33;-10817.22;;;-4.25;100.00
10145;BME280;5113;41.822;23.564;2023-02-14T05:54:39;-10819.44;;;-4.17;100.00
10145;BME280;5113;41.822;23.564;2023-02-14T05:57:45;-10811.47;;;-4.46;100.00
10145;BME280;5113;41.822;23.564;2023-02-14T06:00:52;-10799.47;;;-4.90;100.00
10145;BME280;5113;41.822;23.564;2023-02-14T06:03:59;-10800.28;;;-4.87;100.00
10145;BME280;5113;41.822;23.564;2023-02-14T06:07:05;-10815.25;;;-4.33;100.00
10145;BME280;5113;41.822;23.564;2023-02-14T06:10:11;-10816.78;;;-4.27;100.00
10145;BME280;5113;41.822;23.564;2023-02-14T06:13:18;-10836.63;;;-3.55;100.00
10145;BME280;5113;41.822;23.564;2023-02-14T06:16:24;-10829.78;;;-3.80;100.00
10145;BME280;5113;41.822;23.564;2023-02-14T06:19:32;-10819.31;;;-4.18;100.00
10145;BME280;5113;41.822;23.564;2023-02-14T06:22:38;-10841.94;;;-3.36;100.00
10145;BME280;5113;41.822;23.564;2023-02-14T06:25:44;-10838.59;;;-3.48;100.00
10145;BME280;5113;41.822;23.564;2023-02-14T06:28:52;-10856.22;;;-2.84;100.00
10145;BME280;5113;41.822;23.564;2023-02-14T06:31:58;-10877.19;;;-2.08;95.93
10145;BME280;5113;41.822;23.564;2023-02-14T06:35:11;-10881.13;;;-1.93;94.01
10145;BME280;5113;41.822;23.564;2023-02-14T06:38:17;-10888.97;;;-1.65;91.23
10145;BME280;5113;41.822;23.564;2023-02-14T06:41:23;-10896.50;;;-1.38;90.13
10145;BME280;5113;41.822;23.564;2023-02-14T06:44:29;-10899.59;;;-1.26;89.86
10145;BME280;5113;41.822;23.564;2023-02-14T06:47:35;-10890.06;;;-1.61;90.58
10145;BME280;5113;41.822;23.564;2023-02-14T06:50:45;-10887.28;;;-1.71;93.60
10145;BME280;5113;41.822;23.564;2023-02-14T06:53:52;-10885.47;;;-1.78;95.13
10145;BME280;5113;41.822;23.564;2023-02-14T06:56:58;-10892.31;;;-1.53;95.15
10145;BME280;5113;41.822;23.564;2023-02-14T07:00:05;-10897.78;;;-1.33;93.06
10145;BME280;5113;41.822;23.564;2023-02-14T07:03:11;-10902.81;;;-1.15;90.49
10145;BME280;5113;41.822;23.564;2023-02-14T07:06:19;-10905.75;;;-1.04;93.15
10145;BME280;5113;41.822;23.564;2023-02-14T07:09:26;-10916.41;;;-0.65;90.33
10145;BME280;5113;41.822;23.564;2023-02-14T07:12:32;-10916.69;;;-0.64;88.55
10145;BME280;5113;41.822;23.564;2023-02-14T07:15:38;-10920.16;;;-0.52;88.21
10145;BME280;5113;41.822;23.564;2023-02-14T07:18:44;-10928.72;;;-0.21;87.39
10145;BME280;5113;41.822;23.564;2023-02-14T07:21:52;-10927.31;;;-0.26;87.79
10145;BME280;5113;41.822;23.564;2023-02-14T07:24:58;-10922.84;;;-0.42;88.81
10145;BME280;5113;41.822;23.564;2023-02-14T07:28:04;-10936.28;;;0.07;88.82
10145;BME280;5113;41.822;23.564;2023-02-14T07:31:11;-10936.28;;;0.07;89.01
10145;BME280;5113;41.822;23.564;2023-02-14T07:34:17;-10953.38;;;0.69;86.67
10145;BME280;5113;41.822;23.564;2023-02-14T07:37:24;-10952.09;;;0.64;86.21
10145;BME280;5113;41.822;23.564;2023-02-14T07:40:30;-10967.53;;;1.20;84.70
10145;BME280;5113;41.822;23.564;2023-02-14T07:43:36;-10965.16;;;1.11;85.56
10145;BME280;5113;41.822;23.564;2023-02-14T07:46:43;-10965.56;;;1.13;88.29
10145;BME280;5113;41.822;23.564;2023-02-14T07:49:49;-10971.03;;;1.32;88.82
10145;BME280;5113;41.822;23.564;2023-02-14T07:52:57;-10963.03;;;1.04;89.20
10145;BME280;5113;41.822;23.564;2023-02-14T07:56:03;-10962.63;;;1.02;86.72
10145;BME280;5113;41.822;23.564;2023-02-14T07:59:09;-10971.88;;;1.36;86.40
10145;BME280;5113;41.822;23.564;2023-02-14T08:02:16;-10971.59;;;1.35;87.80
10145;BME280;5113;41.822;23.564;2023-02-14T08:05:24;-10972.56;;;1.38;86.89
10145;BME280;5113;41.822;23.564;2023-02-14T08:08:32;-10987.84;;;1.93;83.85
10145;BME280;5113;41.822;23.564;2023-02-14T08:11:38;-10990.94;;;2.05;84.75
10145;BME280;5113;41.822;23.564;2023-02-14T08:15:02;-11003.81;;;2.51;82.42
10145;BME280;5113;41.822;23.564;2023-02-14T08:18:25;-11002.72;;;2.47;83.74
10145;BME280;5113;41.822;23.564;2023-02-14T08:21:32;-11013.66;;;2.87;81.79
10145;BME280;5113;41.822;23.564;2023-02-14T08:24:40;-11006.63;;;2.61;79.92
10145;BME280;5113;41.822;23.564;2023-02-14T08:27:48;-11009.72;;;2.73;78.46
10145;BME280;5113;41.822;23.564;2023-02-14T08:30:55;-11012.94;;;2.84;78.82
10145;BME280;5113;41.822;23.564;2023-02-14T08:34:02;-11021.63;;;3.16;76.75
10145;BME280;5113;41.822;23.564;2023-02-14T08:37:09;-11014.34;;;2.89;77.32
10145;BME280;5113;41.822;23.564;2023-02-14T08:40:16;-11030.19;;;3.47;75.69
10145;BME280;5113;41.822;23.564;2023-02-14T08:43:24;-11013.66;;;2.87;75.82
10145;BME280;5113;41.822;23.564;2023-02-14T08:46:30;-11024.31;;;3.25;74.15
10145;BME280;5113;41.822;23.564;2023-02-14T08:49:36;-11028.78;;;3.42;73.51
10145;BME280;5113;41.822;23.564;2023-02-14T08:52:43;-11030.91;;;3.49;73.34
10145;BME280;5113;41.822;23.564;2023-02-14T08:55:51;-11023.59;;;3.23;72.70
10145;BME280;5113;41.822;23.564;2023-02-14T08:58:57;-11021.22;;;3.14;73.47
10145;BME280;5113;41.822;23.564;2023-02-14T09:02:03;-11018.41;;;3.04;74.53
10145;BME280;5113;41.822;23.564;2023-02-14T09:05:09;-11033.84;;;3.60;72.50
10145;BME280;5113;41.822;23.564;2023-02-14T09:08:15;-11031.03;;;3.50;71.54
10145;BME280;5113;41.822;23.564;2023-02-14T09:11:24;-11036.09;;;3.68;71.57
10145;BME280;5113;41.822;23.564;2023-02-14T09:14:33;-11033.97;;;3.60;70.88
10145;BME280;5113;41.822;23.564;2023-02-14T09:17:40;-11036.50;;;3.70;70.55
10145;BME280;5113;41.822;23.564;2023-02-14T09:20:46;-11038.34;;;3.76;69.83
10145;BME280;5113;41.822;23.564;2023-02-14T09:23:53;-11046.47;;;4.06;69.04
10145;BME280;5113;41.822;23.564;2023-02-14T09:27:01;-11034.13;;;3.61;69.77
10145;BME280;5113;41.822;23.564;2023-02-14T09:30:08;-11040.84;;;3.85;69.75
10145;BME280;5113;41.822;23.564;2023-02-14T09:33:15;-11049.28;;;4.16;67.73
10145;BME280;5113;41.822;23.564;2023-02-14T09:36:21;-11051.50;;;4.24;67.79
10145;BME280;5113;41.822;23.564;2023-02-14T09:39:45;-11052.78;;;4.28;66.41
10145;BME280;5113;41.822;23.564;2023-02-14T09:43:02;-11064.00;;;4.69;64.98
10145;BME280;5113;41.822;23.564;2023-02-14T09:46:11;-11045.78;;;4.03;65.84
10145;BME280;5113;41.822;23.564;2023-02-14T09:49:28;-11057.00;;;4.44;65.03
10145;BME280;5113;41.822;23.564;2023-02-14T09:52:36;-11061.47;;;4.60;63.58
10145;BME280;5113;41.822;23.564;2023-02-14T09:55:45;-11064.56;;;4.71;62.96
10145;BME280;5113;41.822;23.564;2023-02-14T09:59:02;-11065.69;;;4.75;64.42
10145;BME280;5113;41.822;23.564;2023-02-14T10:02:21;-11070.19;;;4.91;62.15
10145;BME280;5113;41.822;23.564;2023-02-14T10:05:36;-11074.69;;;5.08;61.99
10145;BME280;5113;41.822;23.564;2023-02-14T10:08:56;-11074.69;;;5.08;61.42
10145;BME280;5113;41.822;23.564;2023-02-14T10:12:20;-11061.91;;;4.61;62.66
10145;BME280;5113;41.822;23.564;2023-02-14T10:15:31;-11060.34;;;4.56;64.05
10145;BME280;5113;41.822;23.564;2023-02-14T10:18:41;-11074.53;;;5.07;63.17
10145;BME280;5113;41.822;23.564;2023-02-14T10:21:53;-11079.88;;;5.26;63.50
10145;BME280;5113;41.822;23.564;2023-02-14T10:25:03;-11084.63;;;5.44;62.30
10145;BME280;5113;41.822;23.564;2023-02-14T10:28:13;-11084.50;;;5.43;63.27
10145;BME280;5113;41.822;23.564;2023-02-14T10:31:23;-11093.22;;;5.75;62.81
10145;BME280;5113;41.822;23.564;2023-02-14T10:34:34;-11086.31;;;5.50;63.54
10145;BME280;5113;41.822;23.564;2023-02-14T10:37:52;-11081.00;;;5.30;64.09
10145;BME280;5113;41.822;23.564;2023-02-14T10:41:23;-11092.22;;;5.71;62.86
10145;BME280;5113;41.822;23.564;2023-02-14T10:44:39;-11087.88;;;5.55;62.74
10145;BME280;5113;41.822;23.564;2023-02-14T10:47:56;-11097.84;;;5.91;61.94
10145;BME280;5113;41.822;23.564;2023-02-14T10:51:11;-11091.09;;;5.67;61.39
10145;BME280;5113;41.822;23.564;2023-02-14T10:54:22;-11084.63;;;5.44;62.31
10145;BME280;5113;41.822;23.564;2023-02-14T10:57:32;-11099.09;;;5.96;61.52
10145;BME280;5113;41.822;23.564;2023-02-14T11:00:49;-11091.25;;;5.68;61.97
10145;BME280;5113;41.822;23.564;2023-02-14T11:04:01;-11114.13;;;6.50;59.80
10145;BME280;5113;41.822;23.564;2023-02-14T11:07:11;-11083.78;;;5.41;60.79
10145;BME280;5113;41.822;23.564;2023-02-14T11:10:25;-11072.28;;;4.99;63.63
10145;BME280;5113;41.822;23.564;2023-02-14T11:13:35;-11083.22;;;5.39;63.64
10145;BME280;5113;41.822;23.564;2023-02-14T11:16:41;-11086.19;;;5.49;63.17
10145;BME280;5113;41.822;23.564;2023-02-14T11:19:55;-11097.28;;;5.89;62.68
10145;BME280;5113;41.822;23.564;2023-02-14T11:23:17;-11075.38;;;5.10;64.81
10145;BME280;5113;41.822;23.564;2023-02-14T11:26:26;-11083.22;;;5.39;63.69
10145;BME280;5113;41.822;23.564;2023-02-14T11:29:42;-11075.09;;;5.09;64.87
10145;BME280;5113;41.822;23.564;2023-02-14T11:32:49;-11088.56;;;5.58;63.96
10145;BME280;5113;41.822;23.564;2023-02-14T11:36:03;-11084.06;;;5.42;64.83
10145;BME280;5113;41.822;23.564;2023-02-14T11:39:21;-11100.94;;;6.03;62.67
10145;BME280;5113;41.822;23.564;2023-02-14T11:42:33;-11080.84;;;5.30;64.05
10145;BME280;5113;41.822;23.564;2023-02-14T11:45:42;-11080.28;;;5.28;64.82
10145;BME280;5113;41.822;23.564;2023-02-14T11:48:56;-11084.06;;;5.42;64.27
10145;BME280;5113;41.822;23.564;2023-02-14T11:52:09;-11094.47;;;5.79;62.76
10145;BME280;5113;41.822;23.564;2023-02-14T11:55:25;-11091.09;;;5.67;63.54
10145;BME280;5113;41.822;23.564;2023-02-14T12:03:25;-11080.00;;;5.27;64.44
10145;BME280;5113;41.822;23.564;2023-02-14T12:06:34;-11083.09;;;5.38;64.65
10145;BME280;5113;41.822;23.564;2023-02-14T12:09:43;-11098.25;;;5.93;63.04
10145;BME280;5113;41.822;23.564;2023-02-14T12:12:53;-11083.66;;;5.40;63.38
10145;BME280;5113;41.822;23.564;2023-02-14T12:16:01;-11078.88;;;5.23;64.21
10145;BME280;5113;41.822;23.564;2023-02-14T12:19:12;-11088.44;;;5.57;63.35
10145;BME280;5113;41.822;23.564;2023-02-14T12:22:25;-11100.50;;;6.01;62.62
10145;BME280;5113;41.822;23.564;2023-02-14T12:25:39;-11090.13;;;5.63;63.06
10145;BME280;5113;41.822;23.564;2023-02-14T12:28:51;-11100.38;;;6.01;61.54
10145;BME280;5113;41.822;23.564;2023-02-14T12:32:01;-11093.34;;;5.75;61.74
10145;BME280;5113;41.822;23.564;2023-02-14T12:35:15;-11088.84;;;5.59;63.00
10145;BME280;5113;41.822;23.564;2023-02-14T12:38:29;-11098.97;;;5.95;62.01
10145;BME280;5113;41.822;23.564;2023-02-14T12:41:47;-11086.88;;;5.52;61.35
10145;BME280;5113;41.822;23.564;2023-02-14T12:45:03;-11095.03;;;5.81;61.70
10145;BME280;5113;41.822;23.564;2023-02-14T12:48:22;-11088.56;;;5.58;61.33
10145;BME280;5113;41.822;23.564;2023-02-14T12:51:31;-11082.13;;;5.35;61.27
10145;BME280;5113;41.822;23.564;2023-02-14T12:54:48;-11098.97;;;5.95;59.72
10145;BME280;5113;41.822;23.564;2023-02-14T12:58:16;-11105.16;;;6.18;59.96
10145;BME280;5113;41.822;23.564;2023-02-14T13:01:57;-11098.81;;;5.95;60.61
10145;BME280;5113;41.822;23.564;2023-02-14T13:05:15;-11089.13;;;5.60;61.37
10145;BME280;5113;41.822;23.564;2023-02-14T13:08:38;-11091.66;;;5.69;60.87
10145;BME280;5113;41.822;23.564;2023-02-14T13:11:57;-11088.28;;;5.57;60.97
10145;BME280;5113;41.822;23.564;2023-02-14T13:15:17;-11088.84;;;5.59;61.29
10145;BME280;5113;41.822;23.564;2023-02-14T13:18:38;-11094.88;;;5.81;59.93
10145;BME280;5113;41.822;23.564;2023-02-14T13:21:49;-11085.47;;;5.47;60.28
10145;BME280;5113;41.822;23.564;2023-02-14T13:24:58;-11079.59;;;5.25;62.10
10145;BME280;5113;41.822;23.564;2023-02-14T13:28:11;-11085.47;;;5.47;60.82
10145;BME280;5113;41.822;23.564;2023-02-14T13:31:20;-11085.91;;;5.48;61.07
10145;BME280;5113;41.822;23.564;2023-02-14T13:34:29;-11082.94;;;5.38;61.09
10145;BME280;5113;41.822;23.564;2023-02-14T13:37:37;-11091.09;;;5.67;60.60
10145;BME280;5113;41.822;23.564;2023-02-14T13:40:44;-11085.91;;;5.48;60.86
10145;BME280;5113;41.822;23.564;2023-02-14T13:43:54;-11091.09;;;5.67;58.67
10145;BME280;5113;41.822;23.564;2023-02-14T13:47:02;-11087.72;;;5.55;60.35
10145;BME280;5113;41.822;23.564;2023-02-14T13:50:19;-11084.06;;;5.42;60.16
10145;BME280;5113;41.822;23.564;2023-02-14T13:53:39;-11080.44;;;5.28;61.03
10145;BME280;5113;41.822;23.564;2023-02-14T13:56:46;-11070.88;;;4.94;62.58
10145;BME280;5113;41.822;23.564;2023-02-14T14:04:01;-11087.03;;;5.52;61.48
10145;BME280;5113;41.822;23.564;2023-02-14T14:07:23;-11089.84;;;5.62;61.37
10145;BME280;5113;41.822;23.564;2023-02-14T14:10:42;-11081.28;;;5.31;61.68
10145;BME280;5113;41.822;23.564;2023-02-14T14:14:00;-11074.25;;;5.06;62.07
10145;BME280;5113;41.822;23.564;2023-02-14T14:17:21;-11069.63;;;4.89;62.16
10145;BME280;5113;41.822;23.564;2023-02-14T14:20:42;-11066.25;;;4.77;62.86
10145;BME280;5113;41.822;23.564;2023-02-14T14:24:04;-11054.88;;;4.36;63.63
10145;BME280;5113;41.822;23.564;2023-02-14T14:27:13;-11046.19;;;4.05;64.53
10145;BME280;5113;41.822;23.564;2023-02-14T14:30:24;-11039.59;;;3.81;65.67
10145;BME280;5113;41.822;23.564;2023-02-14T14:33:33;-11042.13;;;3.90;65.61
10145;BME280;5113;41.822;23.564;2023-02-14T14:36:42;-11039.72;;;3.81;65.61
10145;BME280;5113;41.822;23.564;2023-02-14T14:39:50;-11035.53;;;3.66;66.45
10145;BME280;5113;41.822;23.564;2023-02-14T14:43:10;-11031.72;;;3.52;67.08
10145;BME280;5113;41.822;23.564;2023-02-14T14:46:17;-11027.94;;;3.39;68.57
10145;BME280;5113;41.822;23.564;2023-02-14T14:49:24;-11028.66;;;3.41;68.18
10145;BME280;5113;41.822;23.564;2023-02-14T14:52:34;-11028.78;;;3.42;68.38
10145;BME280;5113;41.822;23.564;2023-02-14T14:55:44;-11026.81;;;3.35;69.69
10145;BME280;5113;41.822;23.564;2023-02-14T14:58:56;-11028.09;;;3.39;70.92
10145;BME280;5113;41.822;23.564;2023-02-14T15:02:18;-11022.34;;;3.18;72.36
10145;BME280;5113;41.822;23.564;2023-02-14T15:05:28;-11020.66;;;3.12;73.76
10145;BME280;5113;41.822;23.564;2023-02-14T15:08:37;-11019.25;;;3.07;73.48
10145;BME280;5113;41.822;23.564;2023-02-14T15:11:45;-11017.16;;;2.99;74.60
10145;BME280;5113;41.822;23.564;2023-02-14T15:15:10;-11010.28;;;2.75;76.59
10145;BME280;5113;41.822;23.564;2023-02-14T15:18:17;-11006.34;;;2.60;77.75
10145;BME280;5113;41.822;23.564;2023-02-14T15:21:26;-10998.91;;;2.33;79.43
10145;BME280;5113;41.822;23.564;2023-02-14T15:24:37;-11005.22;;;2.56;78.78
10145;BME280;5113;41.822;23.564;2023-02-14T15:27:43;-11005.78;;;2.58;78.44
10145;BME280;5113;41.822;23.564;2023-02-14T15:30:54;-11004.94;;;2.55;78.63
10145;BME280;5113;41.822;23.564;2023-02-14T15:34:02;-11001.88;;;2.44;79.78
10145;BME280;5113;41.822;23.564;2023-02-14T15:37:10;-11003.53;;;2.50;79.74
10145;BME280;5113;41.822;23.564;2023-02-14T15:40:22;-10998.91;;;2.33;80.65
10145;BME280;5113;41.822;23.564;2023-02-14T15:43:30;-10997.81;;;2.29;80.86
10145;BME280;5113;41.822;23.564;2023-02-14T15:46:38;-10997.81;;;2.29;81.91
10145;BME280;5113;41.822;23.564;2023-02-14T15:49:45;-10992.19;;;2.09;83.35
10145;BME280;5113;41.822;23.564;2023-02-14T15:52:53;-10995.41;;;2.21;82.62
10145;BME280;5113;41.822;23.564;2023-02-14T15:56:04;-10996.53;;;2.25;82.80
10145;BME280;5113;41.822;23.564;2023-02-14T15:59:16;-10992.75;;;2.11;83.12
10145;BME280;5113;41.822;23.564;2023-02-14T16:02:29;-10993.03;;;2.12;83.29
10145;BME280;5113;41.822;23.564;2023-02-14T16:05:37;-10991.50;;;2.07;83.88
10145;BME280;5113;41.822;23.564;2023-02-14T16:08:54;-10993.19;;;2.13;82.86
10145;BME280;5113;41.822;23.564;2023-02-14T16:12:20;-10992.06;;;2.09;84.15
10145;BME280;5113;41.822;23.564;2023-02-14T16:15:29;-10988.97;;;1.97;84.59
10145;BME280;5113;41.822;23.564;2023-02-14T16:18:37;-10987.16;;;1.91;85.53
10145;BME280;5113;41.822;23.564;2023-02-14T16:21:54;-10986.31;;;1.88;85.30
10145;BME280;5113;41.822;23.564;2023-02-14T16:25:01;-10988.69;;;1.96;85.97
10145;BME280;5113;41.822;23.564;2023-02-14T16:28:08;-10988.97;;;1.97;85.50
10145;BME280;5113;41.822;23.564;2023-02-14T16:31:15;-10985.31;;;1.84;86.14
10145;BME280;5113;41.822;23.564;2023-02-14T16:34:21;-10984.19;;;1.80;86.93
10145;BME280;5113;41.822;23.564;2023-02-14T16:37:30;-10985.75;;;1.86;86.78
10145;BME280;5113;41.822;23.564;2023-02-14T16:40:37;-10987.84;;;1.93;86.32
10145;BME280;5113;41.822;23.564;2023-02-14T16:43:46;-10980.13;;;1.65;88.29
10145;BME280;5113;41.822;23.564;2023-02-14T16:46:52;-10984.63;;;1.82;88.05
10145;BME280;5113;41.822;23.564;2023-02-14T16:49:58;-10981.53;;;1.71;88.68
10145;BME280;5113;41.822;23.564;2023-02-14T16:53:06;-10978.75;;;1.60;89.64
10145;BME280;5113;41.822;23.564;2023-02-14T16:56:20;-10983.34;;;1.77;88.69